Time;durP1;ratioP1;P1;durP2;ratioP2;P2;SDS_P1;SDS_P2;PMS_P1;PMS_P2;Temp;Humidity;BMP_temperature;BMP_pressure;BME280_temperature;BME280_humidity;BME280_pressure;Samples;Min_cycle;Max_cycle;Signal;HPM_P1;HPM_P2
2023/09/04 00:08:52;;;;;;;;;;;19.00;99.90;;;;;;21077209;28;19923;-79
2023/09/04 00:18:53;;;;;;;;;;;18.70;99.90;;;;;;21076456;28;19923;-75
2023/09/04 00:28:54;;;;;;;;;;;18.40;99.90;;;;;;21114386;28;19915;-77
2023/09/04 00:38:54;;;;;;;;;;;18.20;99.90;;;;;;21102390;28;19916;-77
2023/09/04 00:48:55;;;;;;;;;;;18.30;99.90;;;;;;21073211;28;19923;-76
2023/09/04 00:58:56;;;;;;;;;;;18.30;99.90;;;;;;21090423;28;19919;-77
2023/09/04 01:08:57;;;;;;;;;;;18.00;99.90;;;;;;21089210;28;19916;-76
2023/09/04 01:18:59;;;;;;;;;;;17.90;99.90;;;;;;21114196;28;19934;-77
2023/09/04 01:29:05;;;;;;;;;;;17.90;99.90;;;;;;21165642;28;20419;-76
2023/09/04 01:39:06;;;;;;;;;;;18.00;99.90;;;;;;21101854;28;20371;-77
2023/09/04 01:49:07;;;;;;;;;;;17.90;99.90;;;;;;21149522;28;19922;-77
2023/09/04 01:59:09;;;;;;;;;;;18.00;99.90;;;;;;21167933;28;20002;-77
2023/09/04 02:09:10;;;;;;;;;;;17.90;99.90;;;;;;21080218;28;19966;-77
2023/09/04 02:19:10;;;;;;;;;;;17.90;99.90;;;;;;21064275;28;20011;-76
2023/09/04 02:29:11;;;;;;;;;;;17.70;99.90;;;;;;21080336;28;19947;-77
2023/09/04 02:39:11;;;;;;;;;;;17.70;99.90;;;;;;21146425;28;20263;-77
2023/09/04 02:49:12;;;;;;;;;;;17.50;99.90;;;;;;21132660;28;19977;-76
2023/09/04 02:59:13;;;;;;;;;;;17.50;99.90;;;;;;21135322;28;19923;-76
2023/09/04 03:09:15;;;;;;;;;;;17.50;99.90;;;;;;21074551;28;19923;-76
2023/09/04 03:19:16;;;;;;;;;;;17.50;99.90;;;;;;21058294;28;19922;-76
2023/09/04 03:29:17;;;;;;;;;;;17.30;99.90;;;;;;21040922;28;19916;-77
2023/09/04 03:39:18;;;;;;;;;;;17.40;99.90;;;;;;21080800;28;19920;-76
2023/09/04 03:49:18;;;;;;;;;;;17.20;99.90;;;;;;21138501;28;20452;-77
2023/09/04 03:59:19;;;;;;;;;;;17.10;99.90;;;;;;21139973;28;20391;-77
2023/09/04 04:09:21;;;;;;;;;;;16.80;99.90;;;;;;21082852;28;20015;-76
2023/09/04 04:19:22;;;;;;;;;;;16.70;99.90;;;;;;21072541;28;19912;-75
2023/09/04 04:29:23;;;;;;;;;;;16.70;99.90;;;;;;21090053;28;20014;-77
2023/09/04 04:39:23;;;;;;;;;;;16.90;99.90;;;;;;21069949;28;19923;-76
2023/09/04 04:49:24;;;;;;;;;;;16.80;99.90;;;;;;21087055;28;20006;-76
2023/09/04 04:59:25;;;;;;;;;;;16.70;99.90;;;;;;21117246;28;19912;-76
2023/09/04 05:09:26;;;;;;;;;;;16.70;99.90;;;;;;21143683;28;19961;-76
2023/09/04 05:19:30;;;;;;;;;;;16.80;99.90;;;;;;21151881;28;19911;-75
2023/09/04 05:29:30;;;;;;;;;;;16.90;99.90;;;;;;21151478;28;20006;-76
2023/09/04 05:39:31;;;;;;;;;;;17.00;99.90;;;;;;21169696;28;20024;-76
2023/09/04 05:49:32;;;;;;;;;;;17.30;99.90;;;;;;21167782;28;20003;-76
2023/09/04 05:59:32;;;;;;;;;;;17.80;99.90;;;;;;21165825;28;19951;-76
2023/09/04 06:09:33;;;;;;;;;;;18.40;99.90;;;;;;21166037;28;20390;-76
2023/09/04 06:19:33;;;;;;;;;;;18.80;99.90;;;;;;21165418;28;19911;-76
2023/09/04 06:29:34;;;;;;;;;;;19.20;99.90;;;;;;21163841;28;20001;-76
2023/09/04 06:39:35;;;;;;;;;;;19.60;99.90;;;;;;21073448;28;19958;-76
2023/09/04 06:49:36;;;;;;;;;;;19.70;99.90;;;;;;21129094;28;19920;-76
2023/09/04 06:59:36;;;;;;;;;;;20.10;99.90;;;;;;21153763;28;19915;-76
2023/09/04 07:09:37;;;;;;;;;;;20.40;99.90;;;;;;21089399;28;19955;-76
2023/09/04 07:19:38;;;;;;;;;;;20.80;99.90;;;;;;21061187;28;19923;-76
2023/09/04 07:29:38;;;;;;;;;;;21.60;99.90;;;;;;21076149;28;19916;-75
2023/09/04 07:39:39;;;;;;;;;;;22.40;99.90;;;;;;21056434;28;19916;-75
2023/09/04 07:49:40;;;;;;;;;;;22.70;99.90;;;;;;21074736;28;19976;-76
2023/09/04 07:59:41;;;;;;;;;;;23.30;99.90;;;;;;21100523;28;19912;-76
2023/09/04 08:09:41;;;;;;;;;;;23.60;99.90;;;;;;21152731;28;20357;-76
2023/09/04 08:19:42;;;;;;;;;;;23.60;99.90;;;;;;21136224;28;19912;-76
2023/09/04 08:29:43;;;;;;;;;;;24.30;99.90;;;;;;21149059;28;20381;-76
2023/09/04 08:39:43;;;;;;;;;;;24.10;99.90;;;;;;21078508;28;19920;-76
2023/09/04 08:49:44;;;;;;;;;;;25.30;99.90;;;;;;21073710;28;19916;-76
2023/09/04 08:59:45;;;;;;;;;;;25.40;99.90;;;;;;21087457;28;19966;-76
2023/09/04 09:09:48;;;;;;;;;;;25.90;99.90;;;;;;21114945;28;19943;-76
2023/09/04 09:19:49;;;;;;;;;;;26.20;99.90;;;;;;21142941;28;19958;-76
2023/09/04 09:29:50;;;;;;;;;;;26.40;99.90;;;;;;21152000;28;19916;-76
2023/09/04 09:39:50;;;;;;;;;;;27.20;99.90;;;;;;21094495;28;20374;-77
2023/09/04 09:49:54;;;;;;;;;;;27.30;99.90;;;;;;21083596;28;19938;-77
2023/09/04 09:59:55;;;;;;;;;;;28.00;99.90;;;;;;21083249;28;20413;-76
2023/09/04 10:09:59;;;;;;;;;;;28.10;99.90;;;;;;21080895;28;19916;-76
2023/09/04 10:20:01;;;;;;;;;;;28.50;99.90;;;;;;21107913;28;19927;-76
2023/09/04 10:30:06;;;;;;;;;;;28.10;99.90;;;;;;21144944;28;19923;-76
2023/09/04 10:40:07;;;;;;;;;;;28.60;99.90;;;;;;21106561;28;19969;-77
2023/09/04 10:50:25;;;;;;;;;;;29.00;99.90;;;;;;21129581;28;19987;-76
2023/09/04 11:00:36;;;;;;;;;;;29.60;99.80;;;;;;21112622;28;19919;-77
2023/09/04 11:10:37;;;;;;;;;;;30.20;97.70;;;;;;21080583;28;19912;-77
2023/09/04 11:20:43;;;;;;;;;;;29.00;97.50;;;;;;21076824;28;19919;-77
2023/09/04 11:30:45;;;;;;;;;;;29.40;97.50;;;;;;21098137;28;19916;-77
2023/09/04 11:40:45;;;;;;;;;;;30.00;96.60;;;;;;21154033;28;19915;-77
2023/09/04 11:50:46;;;;;;;;;;;30.30;93.70;;;;;;21158491;28;19970;-77
2023/09/04 12:00:46;;;;;;;;;;;30.90;94.60;;;;;;21127844;28;20467;-76
2023/09/04 12:10:48;;;;;;;;;;;30.30;96.40;;;;;;21120424;28;19919;-76
2023/09/04 12:20:49;;;;;;;;;;;30.70;95.30;;;;;;21155300;28;19977;-77
2023/09/04 12:30:51;;;;;;;;;;;30.90;95.30;;;;;;21146371;28;19912;-77
2023/09/04 12:40:51;;;;;;;;;;;31.10;94.60;;;;;;21090647;28;19923;-77
2023/09/04 12:50:52;;;;;;;;;;;31.20;92.90;;;;;;21088251;28;19912;-76
2023/09/04 13:00:53;;;;;;;;;;;31.00;93.60;;;;;;21087681;28;20025;-77
2023/09/04 13:10:54;;;;;;;;;;;31.10;92.80;;;;;;21086872;28;19916;-77
2023/09/04 13:20:55;;;;;;;;;;;31.00;93.30;;;;;;21086688;28;20313;-77
2023/09/04 13:30:55;;;;;;;;;;;31.40;92.40;;;;;;21122441;28;19951;-76
2023/09/04 13:40:56;;;;;;;;;;;31.60;92.20;;;;;;21156546;28;20389;-77
2023/09/04 13:50:58;;;;;;;;;;;31.50;92.90;;;;;;21167925;28;19964;-77
2023/09/04 14:00:59;;;;;;;;;;;31.80;91.70;;;;;;21166725;28;19929;-78
2023/09/04 14:11:00;;;;;;;;;;;32.00;91.20;;;;;;21167883;28;20016;-77
2023/09/04 14:21:00;;;;;;;;;;;31.90;91.60;;;;;;21167545;28;20370;-78
2023/09/04 14:31:01;;;;;;;;;;;32.40;90.60;;;;;;21154341;28;19963;-77
2023/09/04 14:41:22;;;;;;;;;;;32.20;90.70;;;;;;21100522;28;19916;-77
2023/09/04 14:51:22;;;;;;;;;;;32.20;90.70;;;;;;21066465;28;20282;-76
2023/09/04 15:01:23;;;;;;;;;;;32.20;90.90;;;;;;21022042;28;19916;-77
2023/09/04 15:11:25;;;;;;;;;;;32.20;91.00;;;;;;21082858;28;19916;-77
2023/09/04 15:21:25;;;;;;;;;;;31.70;90.40;;;;;;21075224;28;19959;-77
2023/09/04 15:31:28;;;;;;;;;;;31.70;90.90;;;;;;21057013;28;19958;-76
2023/09/04 15:41:28;;;;;;;;;;;31.40;90.80;;;;;;21106845;28;19915;-77
2023/09/04 15:51:29;;;;;;;;;;;31.20;91.10;;;;;;21131531;28;19991;-76
2023/09/04 16:01:30;;;;;;;;;;;30.70;91.50;;;;;;21092172;28;20010;-76
2023/09/04 16:11:30;;;;;;;;;;;29.80;92.30;;;;;;21153833;28;19912;-76
2023/09/04 16:21:31;;;;;;;;;;;29.50;92.70;;;;;;21162623;28;19916;-75
2023/09/04 16:31:32;;;;;;;;;;;28.80;93.60;;;;;;21119320;28;19933;-76
2023/09/04 16:41:32;;;;;;;;;;;28.60;93.70;;;;;;21151229;28;19916;-74
2023/09/04 16:51:33;;;;;;;;;;;28.20;94.30;;;;;;21129872;28;19962;-76
2023/09/04 17:01:34;;;;;;;;;;;27.80;95.90;;;;;;21112353;28;20527;-76
2023/09/04 17:11:34;;;;;;;;;;;27.60;96.50;;;;;;21171602;28;20381;-75
2023/09/04 17:21:35;;;;;;;;;;;27.10;97.40;;;;;;21169207;28;19919;-76
2023/09/04 17:31:36;;;;;;;;;;;26.80;99.00;;;;;;21135423;28;19912;-75
2023/09/04 17:41:36;;;;;;;;;;;26.20;98.80;;;;;;21153738;28;19916;-75
2023/09/04 17:51:37;;;;;;;;;;;25.80;99.30;;;;;;21127496;28;19942;-75
2023/09/04 18:01:38;;;;;;;;;;;25.50;99.10;;;;;;21143592;28;19938;-75
2023/09/04 18:11:38;;;;;;;;;;;25.20;99.80;;;;;;21157493;28;19912;-75
2023/09/04 18:21:39;;;;;;;;;;;24.80;99.90;;;;;;21177255;28;19920;-75
2023/09/04 18:31:40;;;;;;;;;;;24.50;99.90;;;;;;21155768;28;19916;-75
2023/09/04 18:41:40;;;;;;;;;;;24.20;99.90;;;;;;21172507;28;20340;-75
2023/09/04 18:51:43;;;;;;;;;;;23.90;99.90;;;;;;21153721;28;20451;-75
2023/09/04 19:01:44;;;;;;;;;;;23.50;99.90;;;;;;21159187;28;19919;-75
2023/09/04 19:11:45;;;;;;;;;;;23.10;99.90;;;;;;21140137;28;19915;-75
2023/09/04 19:21:46;;;;;;;;;;;22.90;99.90;;;;;;21161622;28;19927;-75
2023/09/04 19:31:47;;;;;;;;;;;22.60;99.90;;;;;;21176579;28;20015;-75
2023/09/04 19:41:47;;;;;;;;;;;22.40;99.90;;;;;;21138227;28;19938;-77
2023/09/04 19:51:48;;;;;;;;;;;22.20;99.90;;;;;;21158527;28;19933;-76
2023/09/04 20:01:49;;;;;;;;;;;22.10;99.90;;;;;;21149939;28;19969;-76
2023/09/04 20:11:49;;;;;;;;;;;21.90;99.90;;;;;;21155860;28;19965;-75
2023/09/04 20:21:50;;;;;;;;;;;21.90;99.90;;;;;;21138651;28;19923;-76
2023/09/04 20:31:51;;;;;;;;;;;21.60;99.90;;;;;;21156646;28;19957;-77
2023/09/04 20:41:52;;;;;;;;;;;21.30;99.90;;;;;;21161663;28;19955;-76
2023/09/04 20:51:52;;;;;;;;;;;21.20;99.90;;;;;;21170669;28;19912;-75
2023/09/04 21:01:53;;;;;;;;;;;21.30;99.90;;;;;;21149531;28;19922;-74
2023/09/04 23:26:05;;;;;;;;;;;19.20;99.90;;;;;;21077270;28;20424;-75
2023/09/04 23:36:35;;;;;;;;;;;19.20;99.90;;;;;;21147336;28;19951;-75
2023/09/04 23:46:35;;;;;;;;;;;19.00;99.90;;;;;;21159290;28;19919;-75
2023/09/04 23:56:36;;;;;;;;;;;18.80;99.90;;;;;;21129596;28;20017;-75
